HKE523 RPLC-VHHH
Flight info
| Callsign | HKE523 |
|---|---|
| Flight time | 1h 34m |
| Altitude | 36000 |
| Route | MALIB2C MALIB W4 SANRO A461 NOMAN DCT OSUMO DCT BETTY BETTY3B |
| Aircraft | A321/M-SDE3FGHIRWY/LB1 |
Departure
| Time | 2026-05-08 07:30 |
|---|---|
| Airport | Clark International Airport / Clark Air Base (RPLC) |
Arrival
| Time | 2026-05-08 09:05 |
|---|---|
| Airport | Hong Kong International Airport (VHHH) |
| Time | Latitude | Longitude | Altitude | Speed | Heading |
|---|---|---|---|---|---|
| 2026-05-08 07:00 | 15.19520 | 120.56013 | 436 ft | 0 kts | 290° |
| 2026-05-08 07:20 | 15.19520 | 120.56015 | 436 ft | 1 kts | 290° |
| 2026-05-08 07:21 | 15.19514 | 120.56031 | 434 ft | 3 kts | 290° |
| 2026-05-08 07:21 | 15.19508 | 120.56049 | 436 ft | 3 kts | 291° |
| 2026-05-08 07:21 | 15.19499 | 120.56065 | 434 ft | 3 kts | 330° |
| 2026-05-08 07:21 | 15.19481 | 120.56071 | 436 ft | 3 kts | 3° |
| 2026-05-08 07:22 | 15.19461 | 120.56068 | 433 ft | 3 kts | 16° |
| 2026-05-08 07:22 | 15.19447 | 120.56063 | 426 ft | 1 kts | 20° |
| 2026-05-08 07:22 | 15.19432 | 120.56057 | 436 ft | 3 kts | 20° |
| 2026-05-08 07:22 | 15.19425 | 120.56055 | 436 ft | 0 kts | 20° |
| 2026-05-08 07:25 | 15.19432 | 120.56057 | 425 ft | 3 kts | 20° |
| 2026-05-08 07:26 | 15.19469 | 120.56075 | 424 ft | 8 kts | 39° |
| 2026-05-08 07:26 | 15.19467 | 120.56142 | 430 ft | 12 kts | 114° |
| 2026-05-08 07:26 | 15.19424 | 120.56189 | 432 ft | 5 kts | 99° |
| 2026-05-08 07:26 | 15.19423 | 120.56229 | 426 ft | 6 kts | 85° |
| 2026-05-08 07:27 | 15.19450 | 120.56274 | 421 ft | 9 kts | 41° |
| 2026-05-08 07:27 | 15.19512 | 120.56304 | 436 ft | 11 kts | 21° |
| 2026-05-08 07:27 | 15.19584 | 120.56334 | 430 ft | 12 kts | 21° |
| 2026-05-08 07:27 | 15.19665 | 120.56366 | 436 ft | 13 kts | 21° |
| 2026-05-08 07:28 | 15.19760 | 120.56404 | 424 ft | 17 kts | 21° |
| 2026-05-08 07:28 | 15.19892 | 120.56457 | 436 ft | 21 kts | 21° |
| 2026-05-08 07:28 | 15.20043 | 120.56517 | 429 ft | 26 kts | 19° |
| 2026-05-08 07:28 | 15.20149 | 120.56629 | 436 ft | 23 kts | 84° |
| 2026-05-08 07:29 | 15.20159 | 120.56760 | 436 ft | 17 kts | 101° |
| 2026-05-08 07:29 | 15.20098 | 120.56841 | 428 ft | 10 kts | 182° |
| 2026-05-08 07:29 | 15.20061 | 120.56825 | 435 ft | 0 kts | 197° |
| 2026-05-08 07:29 | 15.20002 | 120.56805 | 433 ft | 38 kts | 199° |
| 2026-05-08 07:30 | 15.19518 | 120.56614 | 426 ft | 109 kts | 201° |
| 2026-05-08 07:30 | 15.18615 | 120.56258 | 427 ft | 164 kts | 200° |
| 2026-05-08 07:30 | 15.17425 | 120.55819 | 721 ft | 188 kts | 198° |
| 2026-05-08 07:30 | 15.16201 | 120.55350 | 1504 ft | 185 kts | 200° |
| 2026-05-08 07:31 | 15.15013 | 120.54869 | 2074 ft | 183 kts | 200° |
| 2026-05-08 07:31 | 15.13781 | 120.54369 | 2309 ft | 200 kts | 200° |
| 2026-05-08 07:31 | 15.12407 | 120.53822 | 2475 ft | 217 kts | 198° |
| 2026-05-08 07:31 | 15.10879 | 120.53729 | 2629 ft | 230 kts | 160° |
| 2026-05-08 07:32 | 15.09628 | 120.54734 | 3083 ft | 234 kts | 119° |
| 2026-05-08 07:32 | 15.09295 | 120.56355 | 3681 ft | 237 kts | 81° |
| 2026-05-08 07:32 | 15.10040 | 120.57858 | 4284 ft | 242 kts | 42° |
| 2026-05-08 07:32 | 15.11557 | 120.58576 | 4858 ft | 247 kts | 4° |
| 2026-05-08 07:33 | 15.13268 | 120.58365 | 5464 ft | 251 kts | 345° |
| 2026-05-08 07:33 | 15.14927 | 120.57778 | 6117 ft | 253 kts | 339° |
| 2026-05-08 07:33 | 15.16576 | 120.57108 | 6762 ft | 255 kts | 339° |
| 2026-05-08 07:33 | 15.18244 | 120.56457 | 7377 ft | 257 kts | 341° |
| 2026-05-08 07:34 | 15.20001 | 120.55987 | 7775 ft | 270 kts | 349° |
| 2026-05-08 07:34 | 15.21922 | 120.55637 | 8010 ft | 288 kts | 352° |
| 2026-05-08 07:34 | 15.23897 | 120.55346 | 8518 ft | 293 kts | 353° |
| 2026-05-08 07:34 | 15.25934 | 120.55078 | 9088 ft | 297 kts | 354° |
| 2026-05-08 07:35 | 15.28026 | 120.54814 | 9710 ft | 300 kts | 354° |
| 2026-05-08 07:35 | 15.30073 | 120.54557 | 10284 ft | 304 kts | 354° |
| 2026-05-08 07:35 | 15.32242 | 120.54286 | 10451 ft | 323 kts | 354° |
| 2026-05-08 07:35 | 15.34540 | 120.53996 | 10614 ft | 341 kts | 354° |
| 2026-05-08 07:36 | 15.36922 | 120.53691 | 11082 ft | 347 kts | 354° |
| 2026-05-08 07:36 | 15.39326 | 120.53377 | 11675 ft | 350 kts | 353° |
| 2026-05-08 07:36 | 15.41746 | 120.53058 | 12315 ft | 351 kts | 354° |
| 2026-05-08 07:36 | 15.44175 | 120.52739 | 12952 ft | 353 kts | 354° |
| 2026-05-08 07:37 | 15.46623 | 120.52420 | 13505 ft | 356 kts | 354° |
| 2026-05-08 07:37 | 15.49092 | 120.52096 | 14057 ft | 359 kts | 354° |
| 2026-05-08 07:37 | 15.51580 | 120.51773 | 14608 ft | 362 kts | 354° |
| 2026-05-08 07:37 | 15.54093 | 120.51448 | 15115 ft | 366 kts | 354° |
| 2026-05-08 07:38 | 15.56631 | 120.51118 | 15628 ft | 369 kts | 354° |
| 2026-05-08 07:38 | 15.59187 | 120.50786 | 16120 ft | 373 kts | 354° |
| 2026-05-08 07:38 | 15.61771 | 120.50450 | 16603 ft | 376 kts | 354° |
| 2026-05-08 07:38 | 15.64377 | 120.50112 | 17099 ft | 379 kts | 354° |
| 2026-05-08 07:39 | 15.67002 | 120.49754 | 17565 ft | 382 kts | 351° |
| 2026-05-08 07:39 | 15.69533 | 120.48884 | 17989 ft | 387 kts | 333° |
| 2026-05-08 07:39 | 15.71775 | 120.47305 | 18429 ft | 392 kts | 324° |
| 2026-05-08 07:39 | 15.73954 | 120.45588 | 18891 ft | 395 kts | 323° |
| 2026-05-08 07:40 | 15.76139 | 120.43846 | 19355 ft | 398 kts | 323° |
| 2026-05-08 07:40 | 15.78336 | 120.42088 | 19812 ft | 400 kts | 323° |
| 2026-05-08 07:40 | 15.80553 | 120.40319 | 20259 ft | 403 kts | 323° |
| 2026-05-08 07:40 | 15.82785 | 120.38542 | 20692 ft | 406 kts | 323° |
| 2026-05-08 07:41 | 15.85031 | 120.36756 | 21115 ft | 408 kts | 323° |
| 2026-05-08 07:41 | 15.87296 | 120.34960 | 21539 ft | 411 kts | 323° |
| 2026-05-08 07:41 | 15.89577 | 120.33152 | 21949 ft | 413 kts | 323° |
| 2026-05-08 07:41 | 15.91870 | 120.31334 | 22345 ft | 416 kts | 322° |
| 2026-05-08 07:42 | 15.94178 | 120.29503 | 22727 ft | 419 kts | 322° |
| 2026-05-08 07:42 | 15.96498 | 120.27662 | 23118 ft | 421 kts | 322° |
| 2026-05-08 07:42 | 15.98830 | 120.25813 | 23463 ft | 424 kts | 322° |
| 2026-05-08 07:42 | 16.01178 | 120.23950 | 23792 ft | 426 kts | 322° |
| 2026-05-08 07:43 | 16.03538 | 120.22071 | 24108 ft | 429 kts | 322° |
| 2026-05-08 07:43 | 16.05916 | 120.20174 | 24440 ft | 431 kts | 322° |
| 2026-05-08 07:43 | 16.08303 | 120.18269 | 24791 ft | 433 kts | 322° |
| 2026-05-08 07:43 | 16.10695 | 120.16363 | 25126 ft | 434 kts | 322° |
| 2026-05-08 07:44 | 16.13097 | 120.14449 | 25441 ft | 436 kts | 322° |
| 2026-05-08 07:44 | 16.15508 | 120.12532 | 25767 ft | 437 kts | 322° |
| 2026-05-08 07:44 | 16.17926 | 120.10609 | 26083 ft | 438 kts | 322° |
| 2026-05-08 07:44 | 16.20351 | 120.08679 | 26398 ft | 440 kts | 323° |
| 2026-05-08 07:45 | 16.22785 | 120.06738 | 26711 ft | 441 kts | 323° |
| 2026-05-08 07:45 | 16.25224 | 120.04795 | 27015 ft | 443 kts | 323° |
| 2026-05-08 07:45 | 16.27677 | 120.02839 | 27316 ft | 445 kts | 323° |
| 2026-05-08 07:45 | 16.30137 | 120.00877 | 27619 ft | 446 kts | 323° |
| 2026-05-08 07:46 | 16.32606 | 119.98908 | 27908 ft | 448 kts | 323° |
| 2026-05-08 07:46 | 16.35083 | 119.96930 | 28211 ft | 449 kts | 323° |
| 2026-05-08 07:46 | 16.37563 | 119.94947 | 28490 ft | 451 kts | 323° |
| 2026-05-08 07:46 | 16.39950 | 119.93037 | 28761 ft | 452 kts | 323° |
| 2026-05-08 07:47 | 16.42452 | 119.91034 | 29035 ft | 454 kts | 323° |
| 2026-05-08 07:47 | 16.44957 | 119.89030 | 29304 ft | 455 kts | 323° |
| 2026-05-08 07:47 | 16.47472 | 119.87016 | 29561 ft | 456 kts | 323° |
| 2026-05-08 07:47 | 16.49993 | 119.84997 | 29813 ft | 458 kts | 323° |
| 2026-05-08 07:48 | 16.52523 | 119.82972 | 30075 ft | 459 kts | 323° |
| 2026-05-08 07:48 | 16.55057 | 119.80944 | 30329 ft | 461 kts | 323° |
| 2026-05-08 07:48 | 16.57605 | 119.78906 | 30578 ft | 462 kts | 323° |
| 2026-05-08 07:48 | 16.60161 | 119.76860 | 30823 ft | 464 kts | 323° |
| 2026-05-08 07:49 | 16.62722 | 119.74808 | 31067 ft | 465 kts | 323° |
| 2026-05-08 07:49 | 16.65285 | 119.72753 | 31382 ft | 464 kts | 323° |
| 2026-05-08 07:49 | 16.67844 | 119.70702 | 31723 ft | 463 kts | 323° |
| 2026-05-08 07:49 | 16.70393 | 119.68655 | 32055 ft | 463 kts | 323° |
| 2026-05-08 07:50 | 16.72942 | 119.66606 | 32378 ft | 462 kts | 323° |
| 2026-05-08 07:50 | 16.75481 | 119.64564 | 32690 ft | 461 kts | 323° |
| 2026-05-08 07:50 | 16.78020 | 119.62523 | 33001 ft | 460 kts | 323° |
| 2026-05-08 07:50 | 16.80553 | 119.60487 | 33295 ft | 460 kts | 323° |
| 2026-05-08 07:51 | 16.83087 | 119.58450 | 33583 ft | 460 kts | 323° |
| 2026-05-08 07:51 | 16.85466 | 119.56549 | 33924 ft | 457 kts | 323° |
| 2026-05-08 07:51 | 16.87985 | 119.54552 | 34182 ft | 458 kts | 323° |
| 2026-05-08 07:51 | 16.90483 | 119.52549 | 34444 ft | 458 kts | 323° |
| 2026-05-08 07:52 | 16.92151 | 119.51201 | 34638 ft | 457 kts | 323° |
| 2026-05-08 07:52 | 16.94659 | 119.49168 | 34927 ft | 456 kts | 323° |
| 2026-05-08 07:52 | 16.97162 | 119.47140 | 35216 ft | 455 kts | 323° |
| 2026-05-08 07:52 | 16.99661 | 119.45119 | 35493 ft | 454 kts | 323° |
| 2026-05-08 07:53 | 17.02160 | 119.43105 | 35761 ft | 453 kts | 323° |
| 2026-05-08 07:53 | 17.07142 | 119.39087 | 35877 ft | 450 kts | 323° |
| 2026-05-08 07:54 | 17.12092 | 119.35094 | 35860 ft | 449 kts | 323° |
| 2026-05-08 07:54 | 17.17038 | 119.31109 | 35869 ft | 449 kts | 323° |
| 2026-05-08 07:55 | 17.21979 | 119.27118 | 35873 ft | 449 kts | 323° |
| 2026-05-08 07:55 | 17.26913 | 119.23128 | 35847 ft | 445 kts | 323° |
| 2026-05-08 07:56 | 17.31799 | 119.19172 | 35841 ft | 444 kts | 323° |
| 2026-05-08 07:56 | 17.36699 | 119.15208 | 35848 ft | 446 kts | 323° |
| 2026-05-08 07:57 | 17.41614 | 119.11224 | 35855 ft | 448 kts | 323° |
| 2026-05-08 07:57 | 17.46542 | 119.07221 | 35864 ft | 448 kts | 323° |
| 2026-05-08 07:58 | 17.51471 | 119.03216 | 35872 ft | 449 kts | 323° |
| 2026-05-08 07:58 | 17.56415 | 118.99212 | 35885 ft | 449 kts | 323° |
| 2026-05-08 07:59 | 17.61354 | 118.95194 | 35891 ft | 449 kts | 323° |
| 2026-05-08 07:59 | 17.66278 | 118.91190 | 35886 ft | 448 kts | 323° |
| 2026-05-08 08:00 | 17.71187 | 118.87200 | 35886 ft | 448 kts | 323° |
| 2026-05-08 08:00 | 17.76107 | 118.83202 | 35886 ft | 448 kts | 323° |
| 2026-05-08 08:01 | 17.81023 | 118.79188 | 35884 ft | 448 kts | 322° |
| 2026-05-08 08:01 | 17.85941 | 118.75175 | 35886 ft | 447 kts | 322° |
| 2026-05-08 08:02 | 17.90860 | 118.71167 | 35887 ft | 448 kts | 322° |
| 2026-05-08 08:02 | 17.95765 | 118.67165 | 35889 ft | 448 kts | 322° |
| 2026-05-08 08:03 | 18.00669 | 118.63153 | 35887 ft | 447 kts | 322° |
| 2026-05-08 08:03 | 18.05572 | 118.59139 | 35891 ft | 447 kts | 322° |
| 2026-05-08 08:04 | 18.10474 | 118.55122 | 35894 ft | 446 kts | 322° |
| 2026-05-08 08:04 | 18.15340 | 118.51145 | 35891 ft | 445 kts | 322° |
| 2026-05-08 08:05 | 18.20232 | 118.47151 | 35891 ft | 445 kts | 322° |
| 2026-05-08 08:05 | 18.25112 | 118.43143 | 35896 ft | 445 kts | 322° |
| 2026-05-08 08:06 | 18.29996 | 118.39137 | 35898 ft | 445 kts | 322° |
| 2026-05-08 08:06 | 18.34876 | 118.35137 | 35898 ft | 445 kts | 322° |
| 2026-05-08 08:07 | 18.39754 | 118.31128 | 35902 ft | 445 kts | 322° |
| 2026-05-08 08:07 | 18.44623 | 118.27116 | 35905 ft | 445 kts | 322° |
| 2026-05-08 08:08 | 18.49497 | 118.23099 | 35907 ft | 445 kts | 322° |
| 2026-05-08 08:08 | 18.54361 | 118.19087 | 35907 ft | 444 kts | 322° |
| 2026-05-08 08:09 | 18.59236 | 118.15072 | 35913 ft | 444 kts | 322° |
| 2026-05-08 08:09 | 18.64106 | 118.11061 | 35911 ft | 444 kts | 322° |
| 2026-05-08 08:10 | 18.68964 | 118.07047 | 35907 ft | 444 kts | 322° |
| 2026-05-08 08:10 | 18.73825 | 118.03031 | 35907 ft | 444 kts | 322° |
| 2026-05-08 08:11 | 18.78684 | 117.99020 | 35907 ft | 443 kts | 322° |
| 2026-05-08 08:11 | 18.83534 | 117.95003 | 35914 ft | 442 kts | 322° |
| 2026-05-08 08:12 | 18.88369 | 117.90990 | 35919 ft | 442 kts | 322° |
| 2026-05-08 08:12 | 18.93203 | 117.86986 | 35919 ft | 441 kts | 322° |
| 2026-05-08 08:13 | 18.98026 | 117.82989 | 35921 ft | 441 kts | 322° |
| 2026-05-08 08:13 | 19.02808 | 117.78951 | 35919 ft | 440 kts | 317° |
| 2026-05-08 08:14 | 19.07009 | 117.74247 | 35919 ft | 440 kts | 313° |
| 2026-05-08 08:14 | 19.11133 | 117.69530 | 35920 ft | 439 kts | 313° |
| 2026-05-08 08:15 | 19.15282 | 117.64795 | 35917 ft | 439 kts | 313° |
| 2026-05-08 08:15 | 19.19430 | 117.60062 | 35918 ft | 438 kts | 313° |
| 2026-05-08 08:16 | 19.23574 | 117.55324 | 35919 ft | 438 kts | 313° |
| 2026-05-08 08:16 | 19.27707 | 117.50590 | 35922 ft | 438 kts | 313° |
| 2026-05-08 08:17 | 19.31840 | 117.45857 | 35925 ft | 438 kts | 313° |
| 2026-05-08 08:17 | 19.35964 | 117.41119 | 35922 ft | 437 kts | 313° |
| 2026-05-08 08:18 | 19.40058 | 117.36420 | 35616 ft | 429 kts | 313° |
| 2026-05-08 08:18 | 19.42071 | 117.34103 | 35065 ft | 427 kts | 313° |
| 2026-05-08 08:18 | 19.44086 | 117.31780 | 34441 ft | 428 kts | 313° |
| 2026-05-08 08:18 | 19.46101 | 117.29462 | 34008 ft | 427 kts | 313° |
| 2026-05-08 08:19 | 19.48123 | 117.27140 | 33865 ft | 430 kts | 313° |
| 2026-05-08 08:19 | 19.52196 | 117.22468 | 33910 ft | 433 kts | 313° |
| 2026-05-08 08:20 | 19.56278 | 117.17772 | 33906 ft | 433 kts | 313° |
| 2026-05-08 08:20 | 19.60356 | 117.13071 | 33904 ft | 433 kts | 313° |
| 2026-05-08 08:21 | 19.64433 | 117.08369 | 33903 ft | 433 kts | 313° |
| 2026-05-08 08:21 | 19.68511 | 117.03656 | 33907 ft | 433 kts | 313° |
| 2026-05-08 08:22 | 19.72591 | 116.98943 | 33915 ft | 434 kts | 313° |
| 2026-05-08 08:22 | 19.76667 | 116.94228 | 33921 ft | 433 kts | 313° |
| 2026-05-08 08:23 | 19.80743 | 116.89513 | 33922 ft | 433 kts | 313° |
| 2026-05-08 08:23 | 19.84814 | 116.84794 | 33922 ft | 433 kts | 313° |
| 2026-05-08 08:24 | 19.88882 | 116.80076 | 33920 ft | 433 kts | 313° |
| 2026-05-08 08:24 | 19.92944 | 116.75354 | 33919 ft | 433 kts | 313° |
| 2026-05-08 08:25 | 19.97010 | 116.70635 | 33922 ft | 433 kts | 313° |
| 2026-05-08 08:25 | 20.00750 | 116.65643 | 33919 ft | 433 kts | 300° |
| 2026-05-08 08:26 | 20.03556 | 116.59971 | 33933 ft | 433 kts | 298° |
| 2026-05-08 08:26 | 20.06349 | 116.54304 | 33937 ft | 432 kts | 299° |
| 2026-05-08 08:27 | 20.09149 | 116.48655 | 33938 ft | 431 kts | 299° |
| 2026-05-08 08:27 | 20.11942 | 116.43015 | 33934 ft | 431 kts | 299° |
| 2026-05-08 08:28 | 20.14729 | 116.37363 | 33931 ft | 431 kts | 298° |
| 2026-05-08 08:28 | 20.17511 | 116.31709 | 33928 ft | 431 kts | 298° |
| 2026-05-08 08:29 | 20.20290 | 116.26049 | 33931 ft | 432 kts | 299° |
| 2026-05-08 08:29 | 20.23077 | 116.20389 | 33934 ft | 432 kts | 299° |
| 2026-05-08 08:30 | 20.25865 | 116.14723 | 33936 ft | 432 kts | 298° |
| 2026-05-08 08:30 | 20.30024 | 116.06215 | 33938 ft | 432 kts | 298° |
| 2026-05-08 08:31 | 20.32802 | 116.00540 | 33936 ft | 432 kts | 298° |
| 2026-05-08 08:31 | 20.35575 | 115.94876 | 33943 ft | 431 kts | 299° |
| 2026-05-08 08:32 | 20.38348 | 115.89206 | 33949 ft | 431 kts | 298° |
| 2026-05-08 08:32 | 20.41115 | 115.83531 | 33947 ft | 431 kts | 298° |
| 2026-05-08 08:33 | 20.43411 | 115.78816 | 33941 ft | 431 kts | 298° |
| 2026-05-08 08:33 | 20.46175 | 115.73145 | 33937 ft | 431 kts | 298° |
| 2026-05-08 08:34 | 20.48940 | 115.67479 | 33947 ft | 430 kts | 298° |
| 2026-05-08 08:34 | 20.51688 | 115.61818 | 33936 ft | 429 kts | 298° |
| 2026-05-08 08:35 | 20.54445 | 115.56172 | 33935 ft | 429 kts | 301° |
| 2026-05-08 08:35 | 20.58186 | 115.51270 | 33946 ft | 427 kts | 316° |
| 2026-05-08 08:36 | 20.62433 | 115.46847 | 33943 ft | 427 kts | 316° |
| 2026-05-08 08:36 | 20.66669 | 115.42418 | 33892 ft | 427 kts | 316° |
| 2026-05-08 08:37 | 20.68792 | 115.40194 | 33296 ft | 427 kts | 315° |
| 2026-05-08 08:37 | 20.70899 | 115.37985 | 32851 ft | 422 kts | 315° |
| 2026-05-08 08:37 | 20.72986 | 115.35797 | 32361 ft | 419 kts | 315° |
| 2026-05-08 08:37 | 20.75060 | 115.33624 | 31888 ft | 416 kts | 315° |
| 2026-05-08 08:38 | 20.77116 | 115.31468 | 31430 ft | 412 kts | 315° |
| 2026-05-08 08:38 | 20.79156 | 115.29326 | 30951 ft | 409 kts | 315° |
| 2026-05-08 08:38 | 20.81178 | 115.27203 | 30493 ft | 406 kts | 315° |
| 2026-05-08 08:38 | 20.83184 | 115.25096 | 30036 ft | 403 kts | 314° |
| 2026-05-08 08:39 | 20.85177 | 115.23001 | 29588 ft | 400 kts | 314° |
| 2026-05-08 08:39 | 20.87159 | 115.20919 | 29150 ft | 397 kts | 315° |
| 2026-05-08 08:39 | 20.89125 | 115.18858 | 28715 ft | 395 kts | 315° |
| 2026-05-08 08:39 | 20.91084 | 115.16802 | 28259 ft | 393 kts | 315° |
| 2026-05-08 08:40 | 20.93030 | 115.14756 | 27817 ft | 391 kts | 314° |
| 2026-05-08 08:40 | 20.94965 | 115.12717 | 27392 ft | 389 kts | 314° |
| 2026-05-08 08:40 | 20.96886 | 115.10688 | 26972 ft | 387 kts | 314° |
| 2026-05-08 08:40 | 20.98796 | 115.08668 | 26557 ft | 385 kts | 314° |
| 2026-05-08 08:41 | 21.00695 | 115.06663 | 26147 ft | 382 kts | 315° |
| 2026-05-08 08:41 | 21.02581 | 115.04674 | 25736 ft | 380 kts | 315° |
| 2026-05-08 08:41 | 21.04466 | 115.02687 | 25298 ft | 380 kts | 315° |
| 2026-05-08 08:41 | 21.06347 | 115.00704 | 24863 ft | 379 kts | 315° |
| 2026-05-08 08:42 | 21.08220 | 114.98730 | 24432 ft | 377 kts | 315° |
| 2026-05-08 08:42 | 21.10081 | 114.96769 | 24004 ft | 375 kts | 315° |
| 2026-05-08 08:42 | 21.11932 | 114.94814 | 23571 ft | 373 kts | 315° |
| 2026-05-08 08:42 | 21.13770 | 114.92869 | 23150 ft | 370 kts | 315° |
| 2026-05-08 08:43 | 21.15596 | 114.90940 | 22729 ft | 368 kts | 315° |
| 2026-05-08 08:43 | 21.17388 | 114.89049 | 22318 ft | 365 kts | 315° |
| 2026-05-08 08:43 | 21.19214 | 114.87118 | 21897 ft | 363 kts | 314° |
| 2026-05-08 08:43 | 21.21003 | 114.85222 | 21479 ft | 360 kts | 314° |
| 2026-05-08 08:44 | 21.22753 | 114.83367 | 21084 ft | 358 kts | 314° |
| 2026-05-08 08:44 | 21.24516 | 114.81500 | 20676 ft | 355 kts | 314° |
| 2026-05-08 08:44 | 21.26264 | 114.79648 | 20271 ft | 352 kts | 314° |
| 2026-05-08 08:44 | 21.27999 | 114.77809 | 19882 ft | 349 kts | 314° |
| 2026-05-08 08:45 | 21.29724 | 114.75981 | 19473 ft | 347 kts | 314° |
| 2026-05-08 08:45 | 21.31438 | 114.74169 | 19075 ft | 345 kts | 314° |
| 2026-05-08 08:45 | 21.33140 | 114.72369 | 18680 ft | 343 kts | 314° |
| 2026-05-08 08:45 | 21.34832 | 114.70576 | 18290 ft | 340 kts | 314° |
| 2026-05-08 08:46 | 21.36507 | 114.68792 | 17908 ft | 338 kts | 314° |
| 2026-05-08 08:46 | 21.38170 | 114.67024 | 17526 ft | 336 kts | 314° |
| 2026-05-08 08:46 | 21.39822 | 114.65269 | 17138 ft | 334 kts | 314° |
| 2026-05-08 08:46 | 21.41466 | 114.63520 | 16761 ft | 332 kts | 314° |
| 2026-05-08 08:47 | 21.43103 | 114.61777 | 16387 ft | 330 kts | 313° |
| 2026-05-08 08:47 | 21.44732 | 114.60047 | 16006 ft | 329 kts | 314° |
| 2026-05-08 08:47 | 21.46351 | 114.58328 | 15634 ft | 327 kts | 314° |
| 2026-05-08 08:47 | 21.48031 | 114.56690 | 15257 ft | 326 kts | 322° |
| 2026-05-08 08:48 | 21.49991 | 114.55467 | 14887 ft | 327 kts | 335° |
| 2026-05-08 08:48 | 21.52141 | 114.54671 | 14516 ft | 326 kts | 340° |
| 2026-05-08 08:48 | 21.54298 | 114.53929 | 14136 ft | 325 kts | 340° |
| 2026-05-08 08:48 | 21.56445 | 114.53188 | 13763 ft | 323 kts | 340° |
| 2026-05-08 08:49 | 21.58579 | 114.52448 | 13395 ft | 321 kts | 340° |
| 2026-05-08 08:49 | 21.60668 | 114.51626 | 13019 ft | 318 kts | 332° |
| 2026-05-08 08:49 | 21.62514 | 114.50362 | 12908 ft | 314 kts | 319° |
| 2026-05-08 08:49 | 21.64153 | 114.48802 | 12921 ft | 316 kts | 316° |
| 2026-05-08 08:50 | 21.65797 | 114.47232 | 12925 ft | 316 kts | 317° |
| 2026-05-08 08:50 | 21.67444 | 114.45665 | 12926 ft | 316 kts | 317° |
| 2026-05-08 08:50 | 21.69094 | 114.44099 | 12668 ft | 316 kts | 317° |
| 2026-05-08 08:50 | 21.70738 | 114.42543 | 12197 ft | 316 kts | 317° |
| 2026-05-08 08:51 | 21.72364 | 114.40999 | 11759 ft | 315 kts | 317° |
| 2026-05-08 08:51 | 21.74000 | 114.39441 | 11334 ft | 313 kts | 317° |
| 2026-05-08 08:51 | 21.75628 | 114.37889 | 10905 ft | 312 kts | 317° |
| 2026-05-08 08:51 | 21.77243 | 114.36352 | 10585 ft | 308 kts | 317° |
| 2026-05-08 08:52 | 21.78836 | 114.34833 | 10340 ft | 307 kts | 317° |
| 2026-05-08 08:52 | 21.80419 | 114.33323 | 10116 ft | 300 kts | 317° |
| 2026-05-08 08:52 | 21.81965 | 114.31845 | 9856 ft | 294 kts | 317° |
| 2026-05-08 08:52 | 21.83491 | 114.30383 | 9650 ft | 294 kts | 317° |
| 2026-05-08 08:53 | 21.85015 | 114.28924 | 9425 ft | 293 kts | 317° |
| 2026-05-08 08:53 | 21.86536 | 114.27471 | 9211 ft | 292 kts | 317° |
| 2026-05-08 08:53 | 21.88069 | 114.26037 | 8994 ft | 292 kts | 322° |
| 2026-05-08 08:53 | 21.89808 | 114.24923 | 8808 ft | 292 kts | 334° |
| 2026-05-08 08:54 | 21.91636 | 114.23975 | 8539 ft | 291 kts | 333° |
| 2026-05-08 08:54 | 21.93452 | 114.23031 | 8292 ft | 289 kts | 334° |
| 2026-05-08 08:54 | 21.95260 | 114.22090 | 8035 ft | 288 kts | 334° |
| 2026-05-08 08:54 | 21.97060 | 114.21152 | 7771 ft | 287 kts | 334° |
| 2026-05-08 08:55 | 21.98833 | 114.20228 | 7504 ft | 285 kts | 334° |
| 2026-05-08 08:55 | 22.00635 | 114.19289 | 7277 ft | 284 kts | 334° |
| 2026-05-08 08:55 | 22.02411 | 114.18363 | 7025 ft | 283 kts | 334° |
| 2026-05-08 08:55 | 22.04177 | 114.17439 | 6755 ft | 282 kts | 334° |
| 2026-05-08 08:56 | 22.05936 | 114.16510 | 6503 ft | 281 kts | 333° |
| 2026-05-08 08:56 | 22.07659 | 114.15588 | 6383 ft | 271 kts | 333° |
| 2026-05-08 08:56 | 22.09312 | 114.14701 | 6272 ft | 260 kts | 333° |
| 2026-05-08 08:56 | 22.10898 | 114.13850 | 6154 ft | 250 kts | 333° |
| 2026-05-08 08:57 | 22.12416 | 114.13034 | 6048 ft | 241 kts | 333° |
| 2026-05-08 08:57 | 22.13906 | 114.12234 | 5877 ft | 238 kts | 333° |
| 2026-05-08 08:57 | 22.15367 | 114.11451 | 5644 ft | 233 kts | 333° |
| 2026-05-08 08:57 | 22.16816 | 114.10673 | 5417 ft | 232 kts | 333° |
| 2026-05-08 08:58 | 22.18259 | 114.09900 | 5197 ft | 231 kts | 333° |
| 2026-05-08 08:58 | 22.19691 | 114.09132 | 4983 ft | 231 kts | 333° |
| 2026-05-08 08:58 | 22.21131 | 114.08361 | 4764 ft | 230 kts | 333° |
| 2026-05-08 08:58 | 22.22630 | 114.07776 | 4536 ft | 229 kts | 351° |
| 2026-05-08 08:59 | 22.24232 | 114.07749 | 4083 ft | 236 kts | 11° |
| 2026-05-08 08:59 | 22.25799 | 114.08104 | 3793 ft | 220 kts | 12° |
| 2026-05-08 08:59 | 22.27210 | 114.08414 | 3674 ft | 197 kts | 11° |
| 2026-05-08 08:59 | 22.28546 | 114.08552 | 3561 ft | 192 kts | 355° |
| 2026-05-08 09:00 | 22.29866 | 114.08321 | 3299 ft | 191 kts | 350° |
| 2026-05-08 09:00 | 22.31170 | 114.08070 | 3054 ft | 190 kts | 350° |
| 2026-05-08 09:00 | 22.32433 | 114.07684 | 2807 ft | 189 kts | 332° |
| 2026-05-08 09:00 | 22.33469 | 114.06810 | 2633 ft | 190 kts | 316° |
| 2026-05-08 09:01 | 22.34355 | 114.05753 | 2478 ft | 190 kts | 309° |
| 2026-05-08 09:01 | 22.35056 | 114.04553 | 2305 ft | 189 kts | 291° |
| 2026-05-08 09:01 | 22.35303 | 114.03185 | 2103 ft | 179 kts | 278° |
| 2026-05-08 09:01 | 22.35463 | 114.01903 | 1947 ft | 166 kts | 278° |
| 2026-05-08 09:02 | 22.35611 | 114.00711 | 1779 ft | 153 kts | 278° |
| 2026-05-08 09:02 | 22.35707 | 113.99591 | 1607 ft | 148 kts | 267° |
| 2026-05-08 09:02 | 22.35467 | 113.98523 | 1406 ft | 146 kts | 251° |
| 2026-05-08 09:02 | 22.35140 | 113.97498 | 1197 ft | 143 kts | 251° |
| 2026-05-08 09:03 | 22.34813 | 113.96490 | 1007 ft | 143 kts | 251° |
| 2026-05-08 09:03 | 22.34488 | 113.95478 | 823 ft | 142 kts | 251° |
| 2026-05-08 09:03 | 22.34165 | 113.94466 | 643 ft | 142 kts | 251° |
| 2026-05-08 09:03 | 22.33855 | 113.93455 | 447 ft | 141 kts | 252° |
| 2026-05-08 09:04 | 22.33523 | 113.92449 | 283 ft | 142 kts | 250° |
| 2026-05-08 09:04 | 22.33184 | 113.91448 | 90 ft | 142 kts | 251° |
| 2026-05-08 09:04 | 22.32881 | 113.90494 | 33 ft | 119 kts | 251° |
| 2026-05-08 09:04 | 22.32674 | 113.89826 | 32 ft | 66 kts | 252° |
| 2026-05-08 09:05 | 22.32523 | 113.89584 | 32 ft | 19 kts | 202° |
| 2026-05-08 09:05 | 22.32432 | 113.89545 | 32 ft | 12 kts | 152° |
| 2026-05-08 09:05 | 22.32431 | 113.89617 | 31 ft | 11 kts | 79° |
| 2026-05-08 09:05 | 22.32450 | 113.89701 | 32 ft | 12 kts | 71° |
| 2026-05-08 09:06 | 22.32482 | 113.89793 | 32 ft | 14 kts | 70° |
| 2026-05-08 09:06 | 22.32506 | 113.89870 | 32 ft | 9 kts | 70° |
| 2026-05-08 09:06 | 22.32529 | 113.89941 | 32 ft | 11 kts | 71° |
| 2026-05-08 09:06 | 22.32559 | 113.90025 | 30 ft | 13 kts | 71° |
| 2026-05-08 09:07 | 22.32590 | 113.90122 | 32 ft | 15 kts | 71° |
| 2026-05-08 09:07 | 22.32618 | 113.90220 | 32 ft | 14 kts | 75° |
| 2026-05-08 09:07 | 22.32575 | 113.90294 | 32 ft | 13 kts | 160° |
| 2026-05-08 09:07 | 22.32482 | 113.90328 | 32 ft | 15 kts | 159° |
| 2026-05-08 09:08 | 22.32379 | 113.90368 | 32 ft | 17 kts | 161° |
| 2026-05-08 09:08 | 22.32263 | 113.90411 | 30 ft | 18 kts | 162° |
| 2026-05-08 09:08 | 22.32137 | 113.90455 | 32 ft | 20 kts | 161° |
| 2026-05-08 09:08 | 22.32001 | 113.90505 | 32 ft | 21 kts | 160° |
| 2026-05-08 09:09 | 22.31860 | 113.90558 | 32 ft | 20 kts | 160° |
| 2026-05-08 09:09 | 22.31767 | 113.90596 | 32 ft | 9 kts | 159° |
| 2026-05-08 09:09 | 22.31724 | 113.90612 | 32 ft | 1 kts | 161° |
| 2026-05-08 09:09 | 22.31722 | 113.90613 | 32 ft | 0 kts | 161° |
| 2026-05-08 09:10 | 22.31708 | 113.90618 | 32 ft | 10 kts | 161° |
| 2026-05-08 09:10 | 22.31623 | 113.90595 | 32 ft | 15 kts | 234° |
| 2026-05-08 09:10 | 22.31587 | 113.90484 | 32 ft | 16 kts | 252° |
| 2026-05-08 09:10 | 22.31547 | 113.90362 | 32 ft | 18 kts | 250° |
| 2026-05-08 09:11 | 22.31501 | 113.90223 | 32 ft | 23 kts | 251° |
| 2026-05-08 09:11 | 22.31445 | 113.90043 | 32 ft | 27 kts | 252° |
| 2026-05-08 09:11 | 22.31384 | 113.89850 | 31 ft | 27 kts | 251° |
| 2026-05-08 09:11 | 22.31304 | 113.89778 | 32 ft | 14 kts | 162° |
| 2026-05-08 09:12 | 22.31206 | 113.89815 | 32 ft | 15 kts | 162° |
| 2026-05-08 09:12 | 22.31078 | 113.89861 | 30 ft | 23 kts | 161° |
| 2026-05-08 09:12 | 22.30961 | 113.89942 | 32 ft | 17 kts | 97° |
| 2026-05-08 09:12 | 22.31006 | 113.90102 | 31 ft | 30 kts | 71° |
| 2026-05-08 09:13 | 22.31071 | 113.90308 | 31 ft | 29 kts | 71° |
| 2026-05-08 09:13 | 22.31138 | 113.90514 | 32 ft | 30 kts | 70° |
| 2026-05-08 09:13 | 22.31203 | 113.90713 | 32 ft | 27 kts | 71° |
| 2026-05-08 09:13 | 22.31267 | 113.90911 | 32 ft | 28 kts | 71° |
| 2026-05-08 09:14 | 22.31333 | 113.91117 | 31 ft | 29 kts | 71° |
| 2026-05-08 09:14 | 22.31399 | 113.91329 | 32 ft | 30 kts | 71° |
| 2026-05-08 09:14 | 22.31446 | 113.91476 | 32 ft | 31 kts | 70° |
| 2026-05-08 09:14 | 22.31511 | 113.91670 | 32 ft | 1 kts | 71° |
| 2026-05-08 09:15 | 22.31513 | 113.91677 | 32 ft | 0 kts | 71° |
| 2026-05-08 09:15 | 22.31526 | 113.91735 | 32 ft | 20 kts | 91° |
| 2026-05-08 09:16 | 22.31456 | 113.91793 | 32 ft | 21 kts | 162° |
| 2026-05-08 09:16 | 22.31315 | 113.91843 | 32 ft | 22 kts | 161° |
| 2026-05-08 09:16 | 22.31165 | 113.91899 | 32 ft | 23 kts | 161° |
| 2026-05-08 09:16 | 22.31012 | 113.91956 | 32 ft | 24 kts | 161° |
| 2026-05-08 09:17 | 22.30917 | 113.91985 | 32 ft | 8 kts | 193° |
| 2026-05-08 09:17 | 22.30896 | 113.91944 | 30 ft | 5 kts | 251° |
| 2026-05-08 09:17 | 22.30887 | 113.91918 | 32 ft | 2 kts | 250° |
| 2026-05-08 09:17 | 22.30885 | 113.91914 | 32 ft | 0 kts | 250° |
| 2026-05-08 09:18 | 22.30886 | 113.91915 | 32 ft | 0 kts | 250° |